Time;durP1;ratioP1;P1;durP2;ratioP2;P2;SDS_P1;SDS_P2;PMS_P1;PMS_P2;Temp;Humidity;BMP_temperature;BMP_pressure;BME280_temperature;BME280_humidity;BME280_pressure;Samples;Min_cycle;Max_cycle;Signal;HPM_P1;HPM_P2
2022/04/16 00:00:13;;;;;;;12.80;6.67;;;7.70;99.90;;;;;;5049721;28;20628;-74
2022/04/16 00:02:40;;;;;;;11.53;5.30;;;7.70;99.90;;;;;;5046542;28;20431;-72
2022/04/16 00:05:08;;;;;;;7.90;6.83;;;7.70;99.90;;;;;;5055475;28;20479;-73
2022/04/16 00:07:35;;;;;;;14.43;7.23;;;7.60;99.90;;;;;;5046182;28;20430;-73
2022/04/16 00:10:02;;;;;;;10.80;7.83;;;7.60;99.90;;;;;;5043199;28;20937;-74
2022/04/16 00:12:29;;;;;;;9.23;5.47;;;7.60;99.90;;;;;;5046971;28;20497;-73
2022/04/16 00:14:56;;;;;;;10.17;7.50;;;7.60;99.90;;;;;;5049390;28;21031;-73
2022/04/16 00:17:25;;;;;;;13.57;7.83;;;7.70;99.90;;;;;;5047031;28;22480;-74
2022/04/16 00:19:52;;;;;;;9.17;6.07;;;7.70;99.90;;;;;;5049339;28;20467;-73
2022/04/16 00:22:19;;;;;;;9.67;7.17;;;7.70;99.90;;;;;;5046362;28;20984;-73
2022/04/16 00:24:46;;;;;;;12.53;7.97;;;7.70;99.90;;;;;;5049682;28;20456;-72
2022/04/16 00:27:13;;;;;;;8.70;6.20;;;7.70;99.90;;;;;;5046386;28;20435;-74
2022/04/16 00:29:40;;;;;;;33.73;8.07;;;7.80;99.90;;;;;;5046581;28;20434;-73
2022/04/16 00:32:08;;;;;;;13.67;6.57;;;7.70;99.90;;;;;;5055282;28;20493;-73
2022/04/16 00:34:36;;;;;;;9.60;6.70;;;7.60;99.90;;;;;;5050991;28;20456;-73
2022/04/16 00:37:03;;;;;;;14.10;7.57;;;7.50;99.90;;;;;;5041546;28;20430;-73
2022/04/16 00:39:30;;;;;;;8.57;5.77;;;7.30;99.90;;;;;;5041220;28;20470;-73
2022/04/16 00:41:57;;;;;;;15.70;7.90;;;7.20;99.90;;;;;;5044259;28;20461;-74
2022/04/16 00:44:25;;;;;;;9.67;5.97;;;7.10;99.90;;;;;;5051796;28;20850;-72
2022/04/16 00:46:51;;;;;;;13.67;7.67;;;7.00;99.90;;;;;;5049512;28;20542;-73
2022/04/16 00:49:18;;;;;;;11.13;6.30;;;7.00;99.90;;;;;;5043187;28;20543;-74
2022/04/16 00:51:47;;;;;;;14.07;7.80;;;7.00;99.90;;;;;;5047226;28;20476;-74
2022/04/16 00:54:14;;;;;;;10.90;6.90;;;7.10;99.90;;;;;;5045016;28;20469;-73
2022/04/16 00:56:40;;;;;;;12.70;6.57;;;7.20;99.90;;;;;;5050119;28;20496;-73
2022/04/16 00:59:07;;;;;;;17.30;7.50;;;7.20;99.90;;;;;;5051929;28;20436;-73
2022/04/16 01:01:34;;;;;;;10.40;6.30;;;7.10;99.90;;;;;;5047288;28;20504;-72
2022/04/16 01:04:01;;;;;;;12.80;8.33;;;7.10;99.90;;;;;;5040380;28;21259;-73
2022/04/16 01:06:36;;;;;;;14.13;7.33;;;7.10;99.90;;;;;;5046802;28;20495;-73
2022/04/16 01:09:04;;;;;;;8.60;5.73;;;7.10;99.90;;;;;;5048194;28;21579;-76
2022/04/16 01:11:32;;;;;;;10.00;5.93;;;7.10;99.90;;;;;;5045720;28;20520;-73
2022/04/16 01:13:59;;;;;;;9.87;6.80;;;7.00;99.90;;;;;;5049093;28;20570;-73
2022/04/16 01:16:28;;;;;;;16.23;6.73;;;7.00;99.90;;;;;;5049060;28;20986;-72
2022/04/16 01:18:55;;;;;;;11.10;7.80;;;7.00;99.90;;;;;;5043623;28;20898;-73
2022/04/16 01:21:22;;;;;;;10.73;7.30;;;7.00;99.90;;;;;;5047728;28;20493;-71
2022/04/16 01:23:50;;;;;;;6.63;5.20;;;7.00;99.90;;;;;;5048380;28;20775;-74
2022/04/16 01:26:17;;;;;;;9.23;7.27;;;6.80;99.90;;;;;;5042618;28;20445;-72
2022/04/16 01:28:44;;;;;;;11.50;8.23;;;6.90;99.90;;;;;;5048853;28;20437;-73
2022/04/16 01:31:10;;;;;;;9.57;5.97;;;6.90;99.90;;;;;;5044085;28;20494;-74
2022/04/16 01:33:37;;;;;;;10.23;5.53;;;6.90;99.90;;;;;;5050639;28;21075;-73
2022/04/16 01:36:05;;;;;;;9.73;6.50;;;6.90;99.90;;;;;;5045826;28;20449;-71
2022/04/16 01:38:31;;;;;;;12.83;6.30;;;6.90;99.90;;;;;;5045604;28;20438;-73
2022/04/16 01:41:00;;;;;;;18.03;7.13;;;6.90;99.90;;;;;;5047512;28;20812;-72
2022/04/16 01:43:29;;;;;;;13.50;7.43;;;6.80;99.90;;;;;;5051368;28;20437;-72
2022/04/16 01:45:56;;;;;;;10.10;6.50;;;6.70;99.90;;;;;;5046190;28;20458;-73
2022/04/16 01:48:27;;;;;;;12.50;6.93;;;6.70;99.90;;;;;;5042148;28;20437;-73
2022/04/16 01:50:55;;;;;;;7.83;5.60;;;6.60;99.90;;;;;;5041262;28;20461;-73
2022/04/16 01:53:22;;;;;;;10.50;5.80;;;6.60;99.90;;;;;;5052791;28;20488;-73
2022/04/16 01:55:49;;;;;;;9.03;5.87;;;6.60;99.90;;;;;;5046686;28;20445;-73
2022/04/16 01:58:20;;;;;;;8.57;5.43;;;6.50;99.90;;;;;;5042893;28;20614;-74
2022/04/16 02:00:47;;;;;;;20.67;8.80;;;6.50;99.90;;;;;;5038410;28;20453;-73
2022/04/16 02:03:14;;;;;;;10.80;6.53;;;6.60;99.90;;;;;;5050133;28;20458;-73
2022/04/16 02:05:41;;;;;;;6.80;4.90;;;6.60;99.90;;;;;;5042663;28;20433;-73
2022/04/16 02:08:08;;;;;;;10.07;6.90;;;6.50;99.90;;;;;;5041260;28;20641;-72
2022/04/16 02:10:35;;;;;;;11.80;6.37;;;6.60;99.90;;;;;;5046952;28;20504;-75
2022/04/16 02:13:02;;;;;;;9.03;5.73;;;6.50;99.90;;;;;;5047374;28;20549;-72
2022/04/16 02:15:30;;;;;;;11.83;6.67;;;6.60;99.90;;;;;;5052246;28;20486;-73
2022/04/16 02:17:57;;;;;;;12.80;6.37;;;6.60;99.90;;;;;;5043590;28;20437;-73
2022/04/16 02:20:24;;;;;;;7.77;5.93;;;6.40;99.90;;;;;;5047569;28;20522;-72
2022/04/16 02:22:53;;;;;;;10.23;6.47;;;6.40;99.90;;;;;;5043343;28;20553;-75
2022/04/16 02:25:20;;;;;;;9.73;6.67;;;6.40;99.90;;;;;;5049538;28;20667;-74
2022/04/16 02:27:47;;;;;;;9.87;6.43;;;6.40;99.90;;;;;;5041174;28;20445;-72
2022/04/16 02:30:16;;;;;;;12.80;6.60;;;6.40;99.90;;;;;;5047847;28;20515;-74
2022/04/16 02:32:45;;;;;;;14.63;8.07;;;6.40;99.90;;;;;;5045434;28;20885;-73
2022/04/16 02:35:14;;;;;;;14.90;6.33;;;6.40;99.90;;;;;;5047214;28;20446;-73
2022/04/16 02:37:41;;;;;;;9.67;6.30;;;6.30;99.90;;;;;;5044540;28;20433;-74
2022/04/16 02:40:09;;;;;;;12.40;7.70;;;6.40;99.90;;;;;;5043877;28;20471;-72
2022/04/16 02:42:36;;;;;;;9.10;6.27;;;6.40;99.90;;;;;;5045977;28;20442;-73
2022/04/16 02:47:48;;;;;;;10.10;5.33;;;6.30;99.90;;;;;;5041269;28;21181;-74
2022/04/16 02:52:46;;;;;;;10.37;7.07;;;6.50;99.90;;;;;;4995528;28;20468;-71
2022/04/16 02:55:15;;;;;;;12.87;7.30;;;6.40;99.90;;;;;;5006059;28;20478;-71
2022/04/16 02:57:42;;;;;;;11.23;8.43;;;6.20;99.90;;;;;;5006979;28;20489;-71
2022/04/16 03:00:09;;;;;;;12.80;7.20;;;6.20;99.90;;;;;;5000170;28;20620;-71
2022/04/16 03:02:36;;;;;;;5.90;5.30;;;6.30;99.90;;;;;;5019835;28;20654;-70
2022/04/16 03:05:06;;;;;;;7.10;5.20;;;6.30;99.90;;;;;;5018344;28;20435;-71
2022/04/16 03:07:33;;;;;;;6.70;4.50;;;6.20;99.90;;;;;;5016741;28;20430;-71
2022/04/16 03:10:02;;;;;;;11.40;6.97;;;6.00;99.90;;;;;;5019402;28;20940;-71
2022/04/16 03:12:28;;;;;;;14.50;7.37;;;6.00;99.90;;;;;;5035559;28;20497;-71
2022/04/16 03:17:40;;;;;;;11.60;5.47;;;6.10;99.90;;;;;;5029304;28;20479;-71
2022/04/16 03:20:09;;;;;;;10.07;5.80;;;6.10;99.90;;;;;;5031483;28;20998;-71
2022/04/16 03:22:38;;;;;;;10.30;6.50;;;6.20;99.90;;;;;;5029268;28;20462;-70
2022/04/16 03:25:07;;;;;;;13.33;6.97;;;6.30;99.90;;;;;;5027871;28;20431;-71
2022/04/16 03:27:34;;;;;;;6.73;5.10;;;6.40;99.90;;;;;;5030398;28;20556;-72
2022/04/16 03:30:01;;;;;;;10.33;7.30;;;6.30;99.90;;;;;;5025832;28;20462;-71
2022/04/16 03:32:27;;;;;;;9.70;6.20;;;6.40;99.90;;;;;;5025537;28;20480;-72
2022/04/16 03:34:54;;;;;;;6.90;6.00;;;6.30;99.90;;;;;;5025562;28;20476;-71
2022/04/16 03:37:24;;;;;;;7.30;5.83;;;6.30;99.90;;;;;;5019505;28;20431;-71
2022/04/16 03:39:51;;;;;;;9.20;5.73;;;6.30;99.90;;;;;;5028020;28;20986;-72
2022/04/16 03:42:18;;;;;;;19.07;7.20;;;6.40;99.90;;;;;;5026516;28;20537;-71
2022/04/16 03:44:44;;;;;;;12.80;6.93;;;6.50;99.90;;;;;;5028592;28;20555;-71
2022/04/16 03:47:11;;;;;;;14.60;6.87;;;6.50;99.90;;;;;;5024801;28;20488;-72
2022/04/16 03:49:38;;;;;;;10.33;6.30;;;6.40;99.90;;;;;;5025257;28;20764;-72
2022/04/16 03:52:05;;;;;;;61.37;10.77;;;6.50;99.90;;;;;;5030546;28;20503;-72
2022/04/16 04:00:03;;;;;;;20.20;6.70;;;6.80;99.90;;;;;;4976238;28;20771;-71
2022/04/16 04:02:33;;;;;;;12.60;7.10;;;6.80;99.90;;;;;;5029423;28;20447;-72
2022/04/16 04:05:00;;;;;;;12.80;8.27;;;6.80;99.90;;;;;;5023621;28;21194;-72
2022/04/16 04:07:26;;;;;;;14.60;7.40;;;6.90;99.90;;;;;;5027773;28;20992;-72
2022/04/16 04:09:54;;;;;;;16.60;8.77;;;6.90;99.90;;;;;;5029927;28;20438;-71
2022/04/16 04:12:21;;;;;;;10.97;6.90;;;6.80;99.90;;;;;;5029315;28;20491;-72
2022/04/16 04:14:48;;;;;;;10.40;6.47;;;6.80;99.90;;;;;;5024216;28;20488;-72
2022/04/16 04:17:15;;;;;;;8.03;6.20;;;6.70;99.90;;;;;;5026003;28;20454;-72
2022/04/16 04:19:43;;;;;;;9.90;6.90;;;6.60;99.90;;;;;;5022104;28;20496;-71
2022/04/16 04:22:13;;;;;;;12.93;7.50;;;6.60;99.90;;;;;;5019755;28;20678;-72
2022/04/16 04:24:40;;;;;;;12.80;7.93;;;6.60;99.90;;;;;;5031499;28;20438;-72
2022/04/16 04:27:09;;;;;;;10.80;6.93;;;6.60;99.90;;;;;;5027836;28;20768;-71
2022/04/16 04:29:37;;;;;;;14.87;7.43;;;6.60;99.90;;;;;;5015842;28;20467;-71
2022/04/16 04:32:04;;;;;;;10.30;6.97;;;6.60;99.90;;;;;;5022558;28;20457;-73
2022/04/16 04:34:31;;;;;;;11.53;7.97;;;6.50;99.90;;;;;;5025645;28;20563;-73
2022/04/16 04:36:58;;;;;;;12.37;9.57;;;6.30;99.90;;;;;;5030094;28;20799;-73
2022/04/16 04:39:25;;;;;;;15.47;7.17;;;6.10;99.90;;;;;;5027384;28;20524;-73
2022/04/16 04:41:52;;;;;;;16.30;10.80;;;6.00;99.90;;;;;;5028823;28;20458;-73
2022/04/16 04:44:20;;;;;;;13.67;8.77;;;5.90;99.90;;;;;;5029504;28;20879;-73
2022/04/16 04:46:46;;;;;;;15.80;8.77;;;5.80;99.90;;;;;;5021677;28;20456;-73
2022/04/16 04:49:13;;;;;;;12.83;8.63;;;5.90;99.90;;;;;;5018703;28;20471;-73
2022/04/16 04:51:43;;;;;;;12.33;7.47;;;6.10;99.90;;;;;;5025647;28;20603;-73
2022/04/16 04:54:10;;;;;;;12.70;8.37;;;6.00;99.90;;;;;;5025933;28;21034;-73
2022/04/16 04:56:37;;;;;;;13.60;8.40;;;6.00;99.90;;;;;;5015735;28;20488;-73
2022/04/16 04:59:04;;;;;;;13.80;9.70;;;6.00;99.90;;;;;;5019165;28;20453;-73
2022/04/16 05:01:32;;;;;;;17.00;9.10;;;5.90;99.90;;;;;;5017179;28;20487;-73
2022/04/16 05:03:59;;;;;;;11.67;8.27;;;6.00;99.90;;;;;;5023431;28;20867;-72
2022/04/16 05:06:25;;;;;;;17.40;8.60;;;5.90;99.90;;;;;;5028754;28;20459;-72
2022/04/16 05:08:52;;;;;;;19.90;11.40;;;5.80;99.90;;;;;;5030919;28;20643;-73
2022/04/16 05:11:23;;;;;;;11.77;8.33;;;5.90;99.90;;;;;;5028023;28;20491;-73
2022/04/16 05:13:50;;;;;;;12.73;7.37;;;6.10;99.90;;;;;;5031352;28;20422;-73
2022/04/16 05:16:16;;;;;;;12.73;8.70;;;6.20;99.90;;;;;;5025860;28;20502;-72
2022/04/16 05:18:44;;;;;;;18.00;8.93;;;6.30;99.90;;;;;;5027281;28;20443;-73
2022/04/16 05:21:11;;;;;;;17.63;10.37;;;6.40;99.90;;;;;;5021243;28;20495;-72
2022/04/16 05:23:39;;;;;;;14.47;7.10;;;6.50;99.90;;;;;;5032912;28;20450;-73
2022/04/16 05:26:09;;;;;;;14.30;7.43;;;6.70;99.90;;;;;;5031848;28;21287;-73
2022/04/16 05:28:36;;;;;;;10.40;8.47;;;6.90;99.90;;;;;;5024421;28;20581;-73
2022/04/16 05:31:04;;;;;;;12.50;8.03;;;7.00;99.90;;;;;;5033673;28;20446;-73
2022/04/16 05:36:17;;;;;;;13.83;8.27;;;7.20;99.90;;;;;;5028813;28;20446;-72
2022/04/16 05:38:45;;;;;;;17.83;8.93;;;7.40;99.90;;;;;;5023068;28;20459;-73
2022/04/16 05:41:12;;;;;;;20.03;9.13;;;7.30;99.90;;;;;;5029891;28;20474;-73
2022/04/16 05:43:38;;;;;;;18.20;10.83;;;6.90;99.90;;;;;;5029356;28;20459;-72
2022/04/16 05:46:05;;;;;;;12.37;7.37;;;7.00;99.90;;;;;;5029475;28;20537;-72
2022/04/16 05:48:32;;;;;;;17.67;10.17;;;6.90;99.90;;;;;;5032354;28;20484;-72
2022/04/16 05:50:59;;;;;;;13.63;9.60;;;6.90;99.90;;;;;;5031586;28;20486;-73
2022/04/16 05:53:27;;;;;;;16.20;8.93;;;7.10;99.90;;;;;;5036552;28;20441;-72
2022/04/16 05:55:54;;;;;;;17.30;9.30;;;7.50;99.90;;;;;;5030540;28;20487;-73
2022/04/16 05:58:21;;;;;;;20.20;8.53;;;7.60;99.90;;;;;;5031208;28;20944;-72
2022/04/16 06:00:48;;;;;;;14.70;9.43;;;7.80;99.90;;;;;;5030502;28;21007;-73
2022/04/16 06:03:15;;;;;;;20.03;9.43;;;8.00;99.90;;;;;;5029650;28;20449;-73
2022/04/16 06:05:42;;;;;;;15.60;8.20;;;8.30;99.90;;;;;;5033819;28;20501;-72
2022/04/16 06:08:08;;;;;;;14.40;9.47;;;8.70;99.90;;;;;;5031109;28;20463;-72
2022/04/16 06:10:37;;;;;;;14.30;9.17;;;8.90;99.90;;;;;;5032703;28;20494;-72
2022/04/16 06:13:04;;;;;;;21.47;9.67;;;9.60;99.90;;;;;;5030817;28;20538;-72
2022/04/16 06:15:33;;;;;;;23.07;10.30;;;10.00;99.90;;;;;;5027207;28;20606;-72
2022/04/16 06:18:00;;;;;;;23.37;10.63;;;10.70;99.90;;;;;;5031820;28;20532;-72
2022/04/16 06:20:26;;;;;;;15.90;10.57;;;11.30;99.90;;;;;;5030338;28;20532;-72
2022/04/16 06:22:53;;;;;;;13.90;9.00;;;11.70;99.90;;;;;;5029629;28;20972;-72
2022/04/16 06:25:20;;;;;;;19.40;10.53;;;12.10;99.90;;;;;;5018928;28;20511;-72
2022/04/16 06:27:48;;;;;;;16.47;8.93;;;12.50;99.90;;;;;;5022842;28;20472;-72
2022/04/16 06:30:15;;;;;;;15.80;9.77;;;12.80;99.90;;;;;;5021917;28;22407;-72
2022/04/16 06:32:42;;;;;;;15.07;10.00;;;12.80;99.90;;;;;;5025896;28;20828;-73
2022/04/16 06:35:12;;;;;;;14.00;9.93;;;13.00;99.90;;;;;;5026999;28;20568;-73
2022/04/16 06:37:39;;;;;;;16.77;11.27;;;13.20;99.90;;;;;;5021212;28;20634;-72
2022/04/16 06:40:07;;;;;;;24.60;9.37;;;13.40;99.90;;;;;;5020066;28;20529;-73
2022/04/16 06:42:34;;;;;;;13.53;8.77;;;13.70;99.90;;;;;;5019401;28;20503;-72
2022/04/16 06:45:02;;;;;;;15.67;9.80;;;13.60;99.90;;;;;;5019979;28;20819;-72
2022/04/16 06:47:30;;;;;;;16.30;10.27;;;13.90;99.90;;;;;;5032101;28;20513;-72
2022/04/16 06:49:56;;;;;;;13.20;8.53;;;14.20;99.90;;;;;;5030274;28;20466;-73
2022/04/16 06:52:23;;;;;;;12.33;7.60;;;14.20;99.90;;;;;;5023926;28;20499;-73
2022/04/16 06:54:50;;;;;;;8.87;5.40;;;14.00;99.90;;;;;;5027601;28;20513;-72
2022/04/16 06:57:17;;;;;;;12.33;7.37;;;13.90;99.90;;;;;;5016914;28;20492;-73
2022/04/16 06:59:44;;;;;;;11.90;6.80;;;13.30;99.90;;;;;;5032734;28;20460;-73
2022/04/16 07:02:12;;;;;;;10.60;6.83;;;13.20;99.90;;;;;;5032432;28;20469;-72
2022/04/16 07:04:40;;;;;;;8.43;5.17;;;13.20;99.90;;;;;;5043867;28;20451;-72
2022/04/16 07:07:08;;;;;;;6.87;4.57;;;12.80;99.90;;;;;;5038599;28;20487;-73
2022/04/16 07:09:38;;;;;;;7.20;4.33;;;12.90;99.90;;;;;;5034410;28;21433;-73
2022/04/16 07:12:06;;;;;;;11.10;5.90;;;12.80;99.90;;;;;;5028942;28;20476;-72
2022/04/16 07:14:33;;;;;;;7.53;4.00;;;13.10;99.90;;;;;;5038458;28;20561;-72
2022/04/16 07:17:01;;;;;;;8.13;6.13;;;13.20;99.90;;;;;;5034498;28;20468;-73
2022/04/16 07:19:29;;;;;;;5.67;4.87;;;13.10;99.90;;;;;;5027618;28;21157;-72
2022/04/16 07:21:56;;;;;;;12.13;7.47;;;13.50;99.90;;;;;;5034325;28;20481;-72
2022/04/16 07:24:23;;;;;;;9.80;5.97;;;13.20;99.90;;;;;;5036824;28;20463;-73
2022/04/16 07:26:52;;;;;;;8.07;5.30;;;13.30;99.90;;;;;;5034397;28;20462;-72
2022/04/16 07:29:19;;;;;;;10.57;5.40;;;13.20;99.90;;;;;;5041722;28;20856;-73
2022/04/16 07:31:46;;;;;;;9.87;4.63;;;13.30;99.90;;;;;;5043351;28;20906;-73
2022/04/16 07:34:12;;;;;;;8.77;5.70;;;13.50;99.90;;;;;;5039216;28;20468;-73
2022/04/16 07:36:40;;;;;;;10.73;6.37;;;13.60;99.90;;;;;;5028989;28;20480;-73
2022/04/16 07:39:07;;;;;;;13.33;8.50;;;13.70;99.90;;;;;;5032375;28;20472;-72
2022/04/16 07:41:33;;;;;;;10.60;5.73;;;14.10;99.90;;;;;;5033439;28;20483;-73
2022/04/16 07:44:03;;;;;;;9.90;7.20;;;14.10;99.90;;;;;;5033938;28;20887;-73
2022/04/16 07:46:30;;;;;;;6.63;4.73;;;14.40;99.90;;;;;;5037622;28;20448;-72
2022/04/16 07:48:57;;;;;;;10.90;7.40;;;14.50;99.90;;;;;;5035682;28;20453;-73
2022/04/16 07:51:24;;;;;;;11.83;5.37;;;14.80;99.90;;;;;;5034266;28;20484;-72
2022/04/16 07:53:52;;;;;;;11.10;6.60;;;15.20;99.90;;;;;;5032198;28;20803;-72
2022/04/16 07:56:19;;;;;;;3.60;3.30;;;15.30;99.90;;;;;;5035151;28;20484;-72
2022/04/16 07:58:45;;;;;;;11.30;6.90;;;15.20;99.90;;;;;;5025900;28;20497;-72
2022/04/16 08:01:12;;;;;;;8.70;6.90;;;15.10;99.90;;;;;;5032413;28;20480;-72
2022/04/16 08:03:39;;;;;;;9.63;6.90;;;15.20;99.90;;;;;;5028410;28;20948;-72
2022/04/16 08:06:05;;;;;;;6.90;5.13;;;15.50;99.90;;;;;;5032777;28;20518;-72
2022/04/16 08:08:32;;;;;;;9.73;6.17;;;14.90;99.90;;;;;;5031192;28;20592;-72
2022/04/16 08:11:00;;;;;;;11.83;6.80;;;14.90;99.90;;;;;;5031464;28;20479;-73
2022/04/16 08:13:27;;;;;;;8.10;5.93;;;15.30;99.90;;;;;;5032509;28;20703;-73
2022/04/16 08:15:54;;;;;;;11.50;7.33;;;16.20;99.90;;;;;;5033580;28;20477;-72
2022/04/16 08:18:21;;;;;;;8.00;4.60;;;16.60;99.90;;;;;;5025044;28;20653;-72
2022/04/16 08:20:47;;;;;;;10.47;6.50;;;16.20;99.90;;;;;;5031743;28;20476;-72
2022/04/16 08:23:14;;;;;;;8.97;6.50;;;16.30;99.90;;;;;;5034610;28;20471;-72
2022/04/16 08:25:47;;;;;;;9.83;5.70;;;16.20;99.90;;;;;;5036761;28;20557;-72
2022/04/16 08:28:16;;;;;;;11.10;6.60;;;16.60;99.90;;;;;;5031303;28;20930;-72
2022/04/16 08:30:43;;;;;;;11.40;7.87;;;16.20;99.90;;;;;;5030755;28;20919;-73
2022/04/16 08:33:15;;;;;;;8.20;6.57;;;16.20;99.90;;;;;;5026575;28;20477;-72
2022/04/16 08:35:43;;;;;;;10.30;6.07;;;16.20;99.90;;;;;;5025891;28;20830;-72
2022/04/16 08:38:12;;;;;;;10.37;5.33;;;16.40;99.90;;;;;;5025962;28;20463;-73
2022/04/16 08:40:38;;;;;;;8.93;6.00;;;16.50;99.90;;;;;;5017335;28;20527;-73
2022/04/16 08:43:07;;;;;;;13.23;6.33;;;16.90;99.90;;;;;;5021060;28;20492;-72
2022/04/16 08:45:38;;;;;;;11.03;7.37;;;17.60;99.90;;;;;;5022864;28;20464;-73
2022/04/16 08:48:06;;;;;;;10.30;8.13;;;18.60;99.90;;;;;;5028337;28;21374;-73
2022/04/16 08:50:33;;;;;;;8.80;5.73;;;18.30;99.90;;;;;;5026451;28;20765;-73
2022/04/16 08:53:00;;;;;;;7.53;5.87;;;18.00;99.90;;;;;;5026714;28;20832;-73
2022/04/16 08:55:34;;;;;;;7.77;5.77;;;17.00;99.90;;;;;;5055921;23;21041;-74
2022/04/16 08:58:03;;;;;;;9.33;4.03;;;15.50;99.90;;;;;;5052256;28;20559;-74
2022/04/16 09:00:32;;;;;;;9.40;4.90;;;15.40;99.90;;;;;;5051219;28;21034;-74
2022/04/16 09:03:06;;;;;;;5.10;3.53;;;16.00;99.90;;;;;;5048595;28;20456;-74
2022/04/16 09:05:37;;;;;;;9.10;4.97;;;16.20;99.90;;;;;;5050029;28;20487;-74
2022/04/16 09:08:07;;;;;;;7.63;5.97;;;16.60;99.90;;;;;;5031818;28;21109;-74
2022/04/16 09:10:40;;;;;;;7.43;4.60;;;16.90;99.90;;;;;;5025682;28;20462;-74
2022/04/16 09:13:07;;;;;;;7.77;6.03;;;16.80;99.90;;;;;;5023302;28;20459;-74
2022/04/16 09:15:38;;;;;;;8.03;5.83;;;17.00;99.90;;;;;;5032079;28;20511;-74
2022/04/16 09:18:09;;;;;;;5.30;3.93;;;16.70;99.90;;;;;;5037146;28;20858;-74
2022/04/16 09:20:38;;;;;;;7.87;6.00;;;16.90;99.90;;;;;;5024009;28;20564;-74
2022/04/16 09:23:19;;;;;;;7.00;4.03;;;17.60;99.90;;;;;;5032780;28;20491;-75
2022/04/16 09:25:47;;;;;;;5.73;4.50;;;17.90;99.90;;;;;;5037613;28;20467;-74
2022/04/16 09:30:57;;;;;;;4.40;2.87;;;18.00;99.90;;;;;;5032515;28;20935;-74
2022/04/16 09:33:27;;;;;;;4.10;3.37;;;18.40;98.70;;;;;;5027688;28;20460;-74
2022/04/16 09:35:58;;;;;;;5.70;4.37;;;17.50;99.40;;;;;;5027718;28;21059;-74
2022/04/16 09:38:37;;;;;;;5.67;3.90;;;16.40;99.90;;;;;;5029022;28;20456;-74
2022/04/16 09:41:05;;;;;;;9.70;6.00;;;16.80;99.90;;;;;;5020059;28;20464;-73
2022/04/16 09:43:35;;;;;;;8.77;5.20;;;16.90;99.90;;;;;;5029676;28;20449;-75
2022/04/16 09:46:10;;;;;;;6.50;3.80;;;17.80;99.90;;;;;;5032154;28;20471;-75
2022/04/16 09:48:39;;;;;;;10.60;4.67;;;18.60;98.90;;;;;;5019177;28;20558;-75
2022/04/16 09:51:06;;;;;;;11.97;7.70;;;18.50;98.70;;;;;;5026132;28;20450;-75
2022/04/16 09:53:36;;;;;;;14.70;6.57;;;18.90;98.70;;;;;;5030635;28;20463;-75
2022/04/16 09:56:08;;;;;;;7.60;5.20;;;19.50;98.20;;;;;;5017132;28;20484;-75
2022/04/16 09:58:45;;;;;;;5.70;5.10;;;20.10;94.60;;;;;;5025210;28;20461;-74
2022/04/16 10:01:26;;;;;;;7.63;5.47;;;20.00;94.40;;;;;;5026176;28;20473;-74
2022/04/16 10:03:58;;;;;;;7.73;5.20;;;20.50;93.40;;;;;;5021018;28;20467;-74
2022/04/16 10:06:30;;;;;;;7.40;6.07;;;20.80;91.10;;;;;;5020864;28;20572;-74
2022/04/16 10:09:13;;;;;;;6.20;4.83;;;20.80;91.40;;;;;;5031218;28;20465;-74
2022/04/16 10:14:34;;;;;;;7.07;4.70;;;21.40;84.10;;;;;;5028975;28;20456;-75
2022/04/16 10:17:17;;;;;;;6.70;5.20;;;21.10;85.50;;;;;;5021723;28;20491;-75
2022/04/16 10:19:55;;;;;;;7.20;5.00;;;22.20;86.20;;;;;;5019395;28;20560;-74
2022/04/16 10:22:26;;;;;;;5.83;4.77;;;22.80;78.60;;;;;;5019745;28;20464;-74
2022/04/16 10:25:00;;;;;;;7.83;4.90;;;21.70;77.00;;;;;;5031431;28;20486;-75
2022/04/16 10:27:33;;;;;;;6.37;5.00;;;20.90;75.40;;;;;;5025741;28;20950;-75
2022/04/16 10:30:05;;;;;;;6.43;4.23;;;20.80;77.50;;;;;;5026684;28;20465;-74
2022/04/16 10:32:42;;;;;;;5.70;3.87;;;20.70;73.40;;;;;;5037430;28;20464;-75
2022/04/16 10:35:17;;;;;;;5.50;4.90;;;20.40;71.60;;;;;;5021758;28;20578;-74
2022/04/16 10:37:54;;;;;;;6.90;4.73;;;21.00;70.50;;;;;;5038303;28;20492;-74
2022/04/16 10:40:25;;;;;;;6.53;5.47;;;21.10;67.70;;;;;;5031211;28;20464;-74
2022/04/16 10:43:02;;;;;;;6.43;5.17;;;21.10;71.70;;;;;;5032339;28;20454;-75
2022/04/16 10:45:38;;;;;;;8.37;5.80;;;21.60;68.80;;;;;;5036566;28;20637;-75
2022/04/16 10:48:08;;;;;;;5.00;4.50;;;21.60;69.40;;;;;;5021347;28;20465;-73
2022/04/16 10:50:41;;;;;;;6.73;4.80;;;21.90;66.80;;;;;;5031568;28;20450;-75
2022/04/16 10:53:15;;;;;;;7.07;4.70;;;22.00;64.90;;;;;;5032122;28;20547;-73
2022/04/16 10:55:49;;;;;;;8.00;5.07;;;22.20;63.80;;;;;;5027247;28;20496;-74
2022/04/16 10:58:16;;;;;;;9.13;4.30;;;21.70;61.00;;;;;;5030169;28;20465;-74
2022/04/16 11:00:46;;;;;;;7.47;4.20;;;21.50;59.90;;;;;;5026354;28;20465;-74
2022/04/16 11:03:30;;;;;;;7.77;4.80;;;21.50;59.40;;;;;;5025083;28;20531;-75
2022/04/16 11:06:19;;;;;;;4.80;4.17;;;22.40;58.90;;;;;;5027898;28;20850;-75
2022/04/16 11:08:47;;;;;;;4.60;4.20;;;22.70;54.10;;;;;;5018662;28;20470;-75
2022/04/16 11:11:16;;;;;;;4.60;3.13;;;22.70;53.10;;;;;;5025571;28;20846;-74
2022/04/16 11:13:44;;;;;;;4.90;3.00;;;20.90;53.70;;;;;;5031037;28;20468;-75
2022/04/16 11:16:13;;;;;;;3.37;3.10;;;20.40;53.90;;;;;;5030915;28;20563;-74
2022/04/16 11:18:48;;;;;;;7.30;4.27;;;20.30;53.70;;;;;;5029980;28;20971;-76
2022/04/16 11:21:25;;;;;;;7.20;3.40;;;20.60;54.80;;;;;;5032801;28;20488;-74
2022/04/16 11:23:55;;;;;;;6.53;3.20;;;20.80;54.10;;;;;;5034710;28;20451;-75
2022/04/16 11:35:04;;;;;;;3.90;2.77;;;23.00;49.30;;;;;;4997112;28;21363;-75
2022/04/16 11:37:33;;;;;;;3.53;1.90;;;22.40;48.10;;;;;;5041655;28;20476;-75
2022/04/16 11:40:12;;;;;;;2.53;1.90;;;21.40;46.90;;;;;;5028322;28;20454;-75
2022/04/16 11:42:45;;;;;;;2.17;1.23;;;21.10;47.10;;;;;;5019073;28;20499;-74
2022/04/16 11:45:22;;;;;;;3.67;2.30;;;20.90;47.90;;;;;;5017854;28;20508;-74
2022/04/16 11:47:57;;;;;;;2.90;2.60;;;21.10;48.40;;;;;;5023698;28;20496;-75
2022/04/16 11:50:32;;;;;;;3.43;2.77;;;22.00;49.00;;;;;;5033463;28;20523;-74
2022/04/16 11:53:04;;;;;;;2.23;2.03;;;22.90;47.80;;;;;;5032358;28;20548;-75
2022/04/16 11:55:31;;;;;;;6.30;2.30;;;23.90;46.40;;;;;;5024971;28;20480;-75
2022/04/16 11:57:58;;;;;;;1.10;0.90;;;23.40;43.00;;;;;;5028004;28;20479;-76
2022/04/16 12:00:26;;;;;;;1.67;1.27;;;21.90;42.70;;;;;;5018683;28;20457;-75
2022/04/16 12:02:58;;;;;;;1.67;1.23;;;20.70;43.30;;;;;;5022656;28;20466;-75
2022/04/16 12:05:33;;;;;;;2.90;1.60;;;20.10;44.00;;;;;;5023785;28;20479;-75
2022/04/16 12:08:01;;;;;;;2.33;1.80;;;20.10;45.00;;;;;;5024324;28;20509;-75
2022/04/16 12:10:33;;;;;;;1.30;1.10;;;20.60;46.10;;;;;;5027958;28;20483;-74
2022/04/16 12:13:10;;;;;;;1.73;1.27;;;20.70;45.00;;;;;;5028976;28;20479;-75
2022/04/16 12:15:41;;;;;;;3.03;1.30;;;21.10;45.40;;;;;;5027659;28;20565;-74
2022/04/16 12:18:12;;;;;;;2.27;1.60;;;20.90;43.60;;;;;;5023515;28;20579;-75
2022/04/16 12:20:43;;;;;;;1.73;1.00;;;22.20;43.20;;;;;;5034834;28;20525;-74
2022/04/16 12:23:14;;;;;;;1.97;1.60;;;23.10;41.50;;;;;;5023046;28;20461;-74
2022/04/16 12:25:43;;;;;;;2.33;1.30;;;21.50;40.20;;;;;;5031266;28;20484;-74
2022/04/16 12:28:14;;;;;;;2.07;1.33;;;21.50;40.80;;;;;;5022448;28;20543;-75
2022/04/16 12:30:49;;;;;;;3.40;1.57;;;21.60;42.40;;;;;;5028721;28;20453;-75
2022/04/16 12:33:27;;;;;;;1.30;1.10;;;22.30;41.40;;;;;;5030966;28;20480;-75
2022/04/16 12:35:57;;;;;;;1.73;1.23;;;22.70;39.90;;;;;;5036736;28;20476;-76
2022/04/16 12:38:26;;;;;;;1.70;1.50;;;22.00;39.90;;;;;;5021941;28;20456;-74
2022/04/16 12:41:08;;;;;;;1.50;1.00;;;21.30;40.80;;;;;;5029255;28;20457;-74
2022/04/16 12:43:37;;;;;;;2.30;1.57;;;21.10;41.10;;;;;;5024821;28;20972;-74
2022/04/16 12:46:04;;;;;;;2.03;1.10;;;20.90;40.80;;;;;;5036361;28;20480;-74
2022/04/16 12:48:32;;;;;;;2.53;1.33;;;21.20;41.80;;;;;;5031610;28;20559;-74
2022/04/16 12:51:00;;;;;;;2.10;1.23;;;20.90;40.30;;;;;;5023071;28;20465;-73
2022/04/16 12:53:31;;;;;;;3.40;1.67;;;20.80;41.50;;;;;;5030945;28;20936;-74
2022/04/16 12:56:04;;;;;;;3.60;1.70;;;21.30;41.40;;;;;;5035996;28;20967;-74
2022/04/16 12:58:31;;;;;;;2.57;2.03;;;22.20;41.10;;;;;;5032829;28;20931;-74
2022/04/16 13:00:59;;;;;;;2.63;1.43;;;22.10;40.60;;;;;;5031779;28;20538;-74
2022/04/16 13:03:34;;;;;;;2.60;1.13;;;21.90;40.00;;;;;;5029679;28;20474;-75
2022/04/16 13:06:02;;;;;;;1.53;1.00;;;21.40;40.10;;;;;;5028237;28;20475;-74
2022/04/16 13:08:30;;;;;;;3.57;1.27;;;20.50;40.60;;;;;;5028637;28;20535;-73
2022/04/16 13:10:58;;;;;;;1.20;0.90;;;20.70;41.60;;;;;;5021974;28;20508;-74
2022/04/16 13:13:28;;;;;;;1.90;1.10;;;20.90;41.00;;;;;;5027860;28;20468;-73
2022/04/16 13:15:55;;;;;;;1.67;1.47;;;20.50;40.40;;;;;;5021440;28;20565;-74
2022/04/16 13:18:22;;;;;;;1.70;0.97;;;20.70;40.50;;;;;;5020307;28;20495;-74
2022/04/16 13:20:48;;;;;;;1.20;1.07;;;20.80;39.30;;;;;;5029389;28;20477;-75
2022/04/16 13:23:15;;;;;;;1.40;1.10;;;20.90;39.50;;;;;;5023914;28;20552;-75